createdAt,value
2022-11-21T00:00:36.721Z,-1.3
2022-11-21T00:03:36.723Z,-1.3
2022-11-21T00:06:36.725Z,-1.3
2022-11-21T00:09:36.732Z,-1.3
2022-11-21T00:12:36.727Z,-1.3
2022-11-21T00:15:36.727Z,-1.3
2022-11-21T00:18:36.731Z,-1.3
2022-11-21T00:21:36.736Z,-1.3
2022-11-21T00:24:36.730Z,-1.3
2022-11-21T00:27:36.727Z,-1.3
2022-11-21T00:30:36.728Z,-1.2
2022-11-21T00:33:36.737Z,-1.2
2022-11-21T00:36:36.737Z,-1.2
2022-11-21T00:39:36.740Z,-1.2
2022-11-21T00:42:36.739Z,-1.2
2022-11-21T00:45:36.738Z,-1.2
2022-11-21T00:48:36.749Z,-1.2
2022-11-21T00:51:36.748Z,-1.2
2022-11-21T00:54:36.746Z,-1.2
2022-11-21T00:57:36.746Z,-1.2
2022-11-21T01:00:36.833Z,-1.2
2022-11-21T01:03:36.750Z,-1.2
2022-11-21T01:06:36.752Z,-1.2
2022-11-21T01:09:36.757Z,-1.2
2022-11-21T01:12:36.778Z,-1.2
2022-11-21T01:15:36.758Z,-1.3
2022-11-21T01:18:36.756Z,-1.3
2022-11-21T01:21:36.756Z,-1.3
2022-11-21T01:24:36.767Z,-1.3
2022-11-21T01:27:36.765Z,-1.3
2022-11-21T01:30:36.789Z,-1.3
2022-11-21T01:33:36.765Z,-1.4
2022-11-21T01:36:36.769Z,-1.4
2022-11-21T01:39:36.763Z,-1.3
2022-11-21T01:42:36.766Z,-1.4
2022-11-21T01:45:36.768Z,-1.4
2022-11-21T01:48:36.794Z,-1.4
2022-11-21T01:51:36.771Z,-1.4
2022-11-21T01:54:36.772Z,-1.4
2022-11-21T01:57:36.773Z,-1.4
2022-11-21T02:00:36.825Z,-1.4
2022-11-21T02:03:36.778Z,-1.4
2022-11-21T02:06:36.801Z,-1.4
2022-11-21T02:09:36.779Z,-1.4
2022-11-21T02:12:36.794Z,-1.4
2022-11-21T02:15:36.779Z,-1.5
2022-11-21T02:18:36.782Z,-1.5
2022-11-21T02:21:36.783Z,-1.5
2022-11-21T02:24:36.805Z,-1.5
2022-11-21T02:27:36.784Z,-1.5
2022-11-21T02:30:36.784Z,-1.5
2022-11-21T02:33:36.788Z,-1.6
2022-11-21T02:36:36.791Z,-1.6
2022-11-21T02:39:36.788Z,-1.7
2022-11-21T02:42:36.820Z,-1.7
2022-11-21T02:45:36.798Z,-1.8
2022-11-21T02:48:36.805Z,-1.9
2022-11-21T02:51:36.803Z,-1.9
2022-11-21T02:54:36.799Z,-2
2022-11-21T02:57:36.802Z,-2.1
2022-11-21T03:00:36.891Z,-2.2
2022-11-21T03:03:36.809Z,-2.2
2022-11-21T03:06:36.813Z,-2.2
2022-11-21T03:09:36.820Z,-2.2
2022-11-21T03:12:36.822Z,-2.3
2022-11-21T03:15:36.822Z,-2.4
2022-11-21T03:18:36.847Z,-2.6
2022-11-21T03:21:36.825Z,-2.6
2022-11-21T03:24:36.826Z,-2.8
2022-11-21T03:27:36.834Z,-2.8
2022-11-21T03:30:36.835Z,-2.9
2022-11-21T03:33:36.834Z,-2.9
2022-11-21T03:36:36.869Z,-3
2022-11-21T03:39:36.844Z,-3.1
2022-11-21T03:42:36.844Z,-3.1
2022-11-21T03:45:36.849Z,-3.2
2022-11-21T03:48:36.852Z,-3.2
2022-11-21T03:51:36.850Z,-3.2
2022-11-21T03:54:36.877Z,-3.2
2022-11-21T03:57:36.854Z,-3.3
2022-11-21T04:00:36.861Z,-3.3
2022-11-21T04:03:36.854Z,-3.4
2022-11-21T04:06:36.861Z,-3.4
2022-11-21T04:09:36.861Z,-3.4
2022-11-21T04:12:36.883Z,-3.5
2022-11-21T04:15:36.861Z,-3.5
2022-11-21T04:18:36.868Z,-3.5
2022-11-21T04:21:36.871Z,-3.6
2022-11-21T04:24:36.872Z,-3.6
2022-11-21T04:27:36.872Z,-3.6
2022-11-21T04:30:36.901Z,-3.7
2022-11-21T04:33:36.879Z,-3.7
2022-11-21T04:36:36.948Z,-3.7
2022-11-21T04:39:36.884Z,-3.8
2022-11-21T04:42:36.884Z,-3.8
2022-11-21T04:45:36.886Z,-3.8
2022-11-21T04:48:36.919Z,-3.9
2022-11-21T04:51:36.895Z,-3.9
2022-11-21T04:54:36.898Z,-4
2022-11-21T04:57:36.901Z,-4
2022-11-21T05:00:36.909Z,-4.1
2022-11-21T05:03:36.910Z,-4
2022-11-21T05:06:36.939Z,-3.9
2022-11-21T05:09:36.919Z,-3.9
2022-11-21T05:12:36.922Z,-3.8
2022-11-21T05:15:36.928Z,-3.8
2022-11-21T05:18:36.926Z,-3.8
2022-11-21T05:21:36.931Z,-3.8
2022-11-21T05:24:36.959Z,-3.7
2022-11-21T05:27:36.937Z,-3.7
2022-11-21T05:30:36.945Z,-3.7
2022-11-21T05:33:36.945Z,-3.7
2022-11-21T05:36:36.954Z,-3.7
2022-11-21T05:39:36.962Z,-3.8
2022-11-21T05:42:36.986Z,-3.8
2022-11-21T05:45:36.967Z,-3.9
2022-11-21T05:48:36.974Z,-4
2022-11-21T05:51:36.977Z,-4.1
2022-11-21T05:54:36.981Z,-4.1
2022-11-21T05:57:36.986Z,-4.1
2022-11-21T06:00:37.013Z,-4.1
2022-11-21T06:03:36.996Z,-4.2
2022-11-21T06:06:37.000Z,-4.2
2022-11-21T06:09:37.005Z,-4.2
2022-11-21T06:12:37.011Z,-4.2
2022-11-21T06:15:37.015Z,-4.2
2022-11-21T06:18:37.054Z,-4.2
2022-11-21T06:21:37.020Z,-4.2
2022-11-21T06:24:37.026Z,-4.1
2022-11-21T06:27:37.031Z,-4.1
2022-11-21T06:30:37.044Z,-4.1
2022-11-21T06:33:37.045Z,-4.1
2022-11-21T06:36:37.071Z,-4.1
2022-11-21T06:39:37.055Z,-4.1
2022-11-21T06:42:37.058Z,-4.1
2022-11-21T06:45:37.058Z,-4.1
2022-11-21T06:48:37.062Z,-4.1
2022-11-21T06:51:37.068Z,-4.1
2022-11-21T06:54:37.108Z,-4.1
2022-11-21T06:57:37.080Z,-4.1
2022-11-21T07:00:37.082Z,-4.1
2022-11-21T07:03:37.088Z,-4
2022-11-21T07:06:37.094Z,-4
2022-11-21T07:09:37.099Z,-4
2022-11-21T07:12:37.123Z,-3.9
2022-11-21T07:15:37.103Z,-3.9
2022-11-21T07:18:37.111Z,-3.9
2022-11-21T07:21:37.114Z,-3.9
2022-11-21T07:24:37.117Z,-3.8
2022-11-21T07:27:37.121Z,-3.8
2022-11-21T07:30:37.152Z,-3.8
2022-11-21T07:33:37.133Z,-3.8
2022-11-21T07:36:37.140Z,-3.7
2022-11-21T07:39:37.146Z,-3.7
2022-11-21T07:42:37.148Z,-3.6
2022-11-21T07:45:37.157Z,-3.5
2022-11-21T07:48:37.185Z,-3.5
2022-11-21T07:51:37.164Z,-3.4
2022-11-21T07:54:37.173Z,-3.3
2022-11-21T07:57:37.178Z,-3.2
2022-11-21T08:00:37.193Z,-3.1
2022-11-21T08:03:37.190Z,-3.1
2022-11-21T08:06:37.229Z,-3
2022-11-21T08:09:39.748Z,-3
2022-11-21T08:12:37.208Z,-2.9
2022-11-21T08:15:37.220Z,-2.9
2022-11-21T08:18:37.222Z,-2.8
2022-11-21T08:21:37.229Z,-2.7
2022-11-21T08:24:37.259Z,-2.5
2022-11-21T08:27:37.237Z,-2.4
2022-11-21T08:30:37.249Z,-2.3
2022-11-21T08:33:37.261Z,-2.2
2022-11-21T08:36:37.252Z,-2.1
2022-11-21T08:39:37.258Z,-2
2022-11-21T08:42:37.289Z,-2
2022-11-21T08:45:37.286Z,-2
2022-11-21T08:48:37.271Z,-1.9
2022-11-21T08:51:37.277Z,-1.9
2022-11-21T08:54:37.282Z,-1.7
2022-11-21T08:57:37.284Z,-1.6
2022-11-21T09:00:37.312Z,-1.7
2022-11-21T09:03:37.286Z,-1.6
2022-11-21T09:06:37.293Z,-1.3
2022-11-21T09:09:37.295Z,-1.1
2022-11-21T09:12:37.301Z,-0.9
2022-11-21T09:15:37.300Z,-0.7
2022-11-21T09:18:37.327Z,-0.4
2022-11-21T09:21:37.307Z,-0.2
2022-11-21T09:24:37.305Z,0.1
2022-11-21T09:27:37.317Z,0.5
2022-11-21T09:30:37.314Z,0.7
2022-11-21T09:33:37.317Z,0.6
2022-11-21T09:36:37.341Z,0.7
2022-11-21T09:39:37.326Z,0.7
2022-11-21T09:42:37.325Z,0.5
2022-11-21T09:45:37.329Z,0.5
2022-11-21T09:48:37.342Z,0.6
2022-11-21T09:51:37.346Z,0.7
2022-11-21T09:54:37.381Z,0.7
2022-11-21T09:57:37.359Z,0.6
2022-11-21T10:00:37.387Z,0.5
2022-11-21T10:03:37.372Z,0.5
2022-11-21T10:06:37.377Z,0.5
2022-11-21T10:09:37.386Z,0.5
2022-11-21T10:12:37.427Z,0.5
2022-11-21T10:15:37.403Z,0.4
2022-11-21T10:18:37.409Z,0.5
2022-11-21T10:21:37.419Z,0.6
2022-11-21T10:24:37.423Z,0.7
2022-11-21T10:27:37.438Z,0.8
2022-11-21T10:30:37.480Z,1
2022-11-21T10:33:37.452Z,1.4
2022-11-21T10:36:37.459Z,1.5
2022-11-21T10:39:37.483Z,1.5
2022-11-21T10:42:37.477Z,1.5
2022-11-21T10:45:37.487Z,1.7
2022-11-21T10:48:37.513Z,2.2
2022-11-21T10:51:37.503Z,2.6
2022-11-21T10:54:37.518Z,2.9
2022-11-21T10:57:37.523Z,3
2022-11-21T11:00:37.550Z,2.8
2022-11-21T11:03:37.540Z,3
2022-11-21T11:06:37.575Z,3.1
2022-11-21T11:09:37.559Z,2.9
2022-11-21T11:12:37.580Z,2.7
2022-11-21T11:15:37.573Z,2.6
2022-11-21T11:18:37.585Z,2.6
2022-11-21T11:21:37.595Z,2.6
2022-11-21T11:24:37.629Z,2.9
2022-11-21T11:27:37.617Z,3.2
2022-11-21T11:30:37.627Z,3.4
2022-11-21T11:33:37.629Z,3.3
2022-11-21T11:36:37.642Z,3.3
2022-11-21T11:39:37.656Z,3.2
2022-11-21T11:42:37.691Z,3.2
2022-11-21T11:45:37.672Z,3.2
2022-11-21T11:48:56.466Z,3.2
2022-11-21T11:51:37.693Z,2.9
2022-11-21T11:54:37.699Z,2.7
2022-11-21T11:57:37.717Z,2.7
2022-11-21T12:00:37.750Z,2.7
2022-11-21T12:03:37.734Z,2.6
2022-11-21T12:07:18.307Z,2.4
2022-11-21T12:09:37.776Z,2.3
2022-11-21T12:12:37.764Z,2.2
2022-11-21T12:15:37.788Z,2.1
2022-11-21T12:18:37.810Z,2
2022-11-21T12:21:37.797Z,1.9
2022-11-21T12:24:42.688Z,1.8
2022-11-21T12:27:37.815Z,1.8
2022-11-21T12:30:37.829Z,1.8
2022-11-21T12:33:37.840Z,1.7
2022-11-21T12:36:37.874Z,1.7
2022-11-21T12:39:37.868Z,1.7
2022-11-21T12:42:37.881Z,1.7
2022-11-21T12:45:37.891Z,1.6
2022-11-21T12:48:37.899Z,1.6
2022-11-21T12:51:37.919Z,1.6
2022-11-21T12:54:37.957Z,1.6
2022-11-21T12:57:37.938Z,1.7
2022-11-21T13:00:37.949Z,1.6
2022-11-21T13:03:37.965Z,1.6
2022-11-21T13:06:37.976Z,1.6
2022-11-21T13:09:37.994Z,1.6
2022-11-21T13:12:38.026Z,1.6
2022-11-21T13:15:38.708Z,1.6
2022-11-21T13:18:38.032Z,1.6
2022-11-21T13:21:40.786Z,1.6
2022-11-21T13:24:38.056Z,1.6
2022-11-21T13:27:39.284Z,1.6
2022-11-21T13:30:38.105Z,1.6
2022-11-21T13:33:38.099Z,1.6
2022-11-21T13:36:38.113Z,1.5
2022-11-21T13:39:38.125Z,1.5
2022-11-21T13:42:38.140Z,1.5
2022-11-21T13:45:38.153Z,1.5
2022-11-21T13:48:38.197Z,1.5
2022-11-21T13:51:38.184Z,1.5
2022-11-21T13:54:38.201Z,1.5
2022-11-21T13:57:38.211Z,1.5
2022-11-21T14:00:38.237Z,1.6
2022-11-21T14:03:38.246Z,1.7
2022-11-21T14:06:38.324Z,2
2022-11-21T14:09:38.272Z,2.3
2022-11-21T14:12:42.976Z,2.6
2022-11-21T14:15:38.310Z,2.6
2022-11-21T14:18:38.319Z,2.4
2022-11-21T14:21:38.335Z,2.1
2022-11-21T14:24:38.369Z,1.9
2022-11-21T14:27:42.323Z,1.7
2022-11-21T14:30:38.380Z,1.5
2022-11-21T14:33:38.394Z,1.3
2022-11-21T14:36:38.406Z,1.2
2022-11-21T14:39:42.125Z,1.1
2022-11-21T14:42:38.583Z,1
2022-11-21T14:45:38.461Z,0.8
2022-11-21T14:48:38.469Z,0.7
2022-11-21T14:51:38.487Z,0.7
2022-11-21T14:54:38.513Z,0.6
2022-11-21T14:57:38.519Z,0.5
2022-11-21T15:03:38.594Z,0.3
2022-11-21T15:06:38.572Z,0.2
2022-11-21T15:12:42.913Z,-0.1
2022-11-21T15:15:38.622Z,-0.2
2022-11-21T15:18:38.662Z,-0.3
2022-11-21T15:21:38.658Z,-0.4
2022-11-21T15:24:38.673Z,-0.5
2022-11-21T15:27:38.697Z,-0.6
2022-11-21T15:30:38.716Z,-0.7
2022-11-21T15:33:38.725Z,-0.7
2022-11-21T15:36:38.769Z,-0.9
2022-11-21T15:39:38.769Z,-1
2022-11-21T15:42:38.785Z,-1
2022-11-21T15:45:38.812Z,-1.1
2022-11-21T15:48:38.822Z,-1.1
2022-11-21T15:51:59.956Z,-1.1
2022-11-21T15:54:38.882Z,-1.2
2022-11-21T15:57:38.874Z,-1.3
2022-11-21T16:00:38.891Z,-1.3
2022-11-21T16:03:38.906Z,-1.4
2022-11-21T16:06:38.930Z,-1.5
2022-11-21T16:09:38.945Z,-1.6
2022-11-21T16:12:39.024Z,-1.6
2022-11-21T16:15:38.978Z,-1.7
2022-11-21T16:18:39.005Z,-1.7
2022-11-21T16:21:39.022Z,-1.7
2022-11-21T16:24:39.039Z,-1.8
2022-11-21T16:27:39.059Z,-1.8
2022-11-21T16:30:39.110Z,-1.8
2022-11-21T16:33:39.098Z,-1.8
2022-11-21T16:36:39.114Z,-1.8
2022-11-21T16:39:39.131Z,-1.8
2022-11-21T16:42:39.144Z,-1.9
2022-11-21T16:45:39.165Z,-1.8
2022-11-21T16:48:39.222Z,-1.9
2022-11-21T16:51:39.204Z,-1.8
2022-11-21T16:54:39.231Z,-1.9
2022-11-21T16:57:39.243Z,-1.8
2022-11-21T17:00:39.268Z,-1.8
2022-11-21T17:03:39.288Z,-1.8
2022-11-21T17:06:39.339Z,-1.8
2022-11-21T17:09:39.329Z,-1.8
2022-11-21T17:12:39.350Z,-1.8
2022-11-21T17:15:39.373Z,-1.8
2022-11-21T17:18:39.402Z,-1.8
2022-11-21T17:21:39.418Z,-1.8
2022-11-21T17:24:39.469Z,-1.8
2022-11-21T17:27:39.459Z,-1.9
2022-11-21T17:30:39.491Z,-1.9
2022-11-21T17:33:39.507Z,-1.9
2022-11-21T17:36:39.525Z,-1.9
2022-11-21T17:39:39.549Z,-2
2022-11-21T17:42:39.596Z,-2
2022-11-21T17:45:39.593Z,-2
2022-11-21T17:48:39.622Z,-2
2022-11-21T17:51:39.638Z,-2
2022-11-21T17:54:39.663Z,-2
2022-11-21T17:57:39.683Z,-2
2022-11-21T18:00:39.732Z,-2.1
2022-11-21T18:03:39.733Z,-2.1
2022-11-21T18:06:39.762Z,-2.1
2022-11-21T18:09:39.785Z,-2.2
2022-11-21T18:12:39.809Z,-2.2
2022-11-21T18:15:39.831Z,-2.2
2022-11-21T18:18:39.886Z,-2.2
2022-11-21T18:21:39.882Z,-2.3
2022-11-21T18:24:39.905Z,-2.3
2022-11-21T18:27:39.998Z,-2.3
2022-11-21T18:30:39.951Z,-2.3
2022-11-21T18:33:39.977Z,-2.3
2022-11-21T18:36:40.029Z,-2.2
2022-11-21T18:39:40.031Z,-2.2
2022-11-21T18:42:40.051Z,-2.2
2022-11-21T18:45:40.079Z,-2.2
2022-11-21T18:49:01.208Z,-2.3
2022-11-21T18:51:40.134Z,-2.3
2022-11-21T18:54:40.168Z,-2.3
2022-11-21T18:57:40.159Z,-2.3
2022-11-21T19:00:40.184Z,-2.3
2022-11-21T19:03:40.202Z,-2.3
2022-11-21T19:06:40.229Z,-2.3
2022-11-21T19:09:40.253Z,-2.3
2022-11-21T19:12:40.339Z,-2.3
2022-11-21T19:15:40.300Z,-2.4
2022-11-21T19:18:41.774Z,-2.4
2022-11-21T19:21:40.344Z,-2.4
2022-11-21T19:24:40.375Z,-2.3
2022-11-21T19:27:40.399Z,-2.3
2022-11-21T19:30:40.446Z,-2.4
2022-11-21T19:33:40.444Z,-2.4
2022-11-21T19:36:40.474Z,-2.4
2022-11-21T19:39:40.505Z,-2.4
2022-11-21T19:42:40.529Z,-2.4
2022-11-21T19:45:40.549Z,-2.4
2022-11-21T19:48:40.591Z,-2.4
2022-11-21T19:51:40.582Z,-2.4
2022-11-21T19:54:40.599Z,-2.4
2022-11-21T19:57:40.612Z,-2.4
2022-11-21T20:00:40.637Z,-2.4
2022-11-21T20:03:40.648Z,-2.5
2022-11-21T20:06:40.693Z,-2.4
2022-11-21T20:09:40.859Z,-2.4
2022-11-21T20:12:40.701Z,-2.3
2022-11-21T20:15:40.713Z,-2.2
2022-11-21T20:18:40.730Z,-2.1
2022-11-21T20:21:40.751Z,-1.9
2022-11-21T20:24:42.675Z,-1.8
2022-11-21T20:27:40.780Z,-1.7
2022-11-21T20:30:40.799Z,-1.7
2022-11-21T20:33:40.819Z,-1.6
2022-11-21T20:36:40.838Z,-1.5
2022-11-21T20:39:40.852Z,-1.5
2022-11-21T20:42:40.895Z,-1.4
2022-11-21T20:46:11.927Z,-1.4
2022-11-21T20:48:40.906Z,-1.3
2022-11-21T20:54:40.945Z,-1.3
2022-11-21T20:57:40.967Z,-1.2
2022-11-21T21:00:41.003Z,-1.2
2022-11-21T21:03:41.003Z,-1.2
2022-11-21T21:06:41.021Z,-1.1
2022-11-21T21:09:41.044Z,-1.1
2022-11-21T21:12:44.424Z,-1
2022-11-21T21:15:41.080Z,-1
2022-11-21T21:18:41.132Z,-1
2022-11-21T21:21:41.122Z,-1
2022-11-21T21:24:41.147Z,-0.9
2022-11-21T21:27:41.167Z,-0.9
2022-11-21T21:30:41.167Z,-0.8
2022-11-21T21:33:41.171Z,-0.8
2022-11-21T21:36:41.248Z,-0.7
2022-11-21T21:39:41.234Z,-0.7
2022-11-21T21:42:41.234Z,-0.7
2022-11-21T21:45:41.240Z,-0.6
2022-11-21T21:48:41.241Z,-0.6
2022-11-21T21:51:41.251Z,-0.5
2022-11-21T21:54:41.268Z,-0.5
2022-11-21T21:57:45.018Z,-0.4
2022-11-21T22:00:41.239Z,-0.4
2022-11-21T22:03:41.241Z,-0.4
2022-11-21T22:06:41.236Z,-0.3
2022-11-21T22:09:41.239Z,-0.3
2022-11-21T22:12:44.084Z,-0.3
2022-11-21T22:15:41.239Z,-0.3
2022-11-21T22:18:41.244Z,-0.3
2022-11-21T22:21:41.238Z,-0.3
2022-11-21T22:24:41.441Z,-0.3
2022-11-21T22:27:41.245Z,-0.3
2022-11-21T22:30:41.270Z,-0.3
2022-11-21T22:33:41.255Z,-0.3
2022-11-21T22:36:41.254Z,-0.3
2022-11-21T22:39:41.258Z,-0.3
2022-11-21T22:42:41.254Z,-0.2
2022-11-21T22:45:41.255Z,-0.2
2022-11-21T22:48:41.291Z,-0.2
2022-11-21T22:51:41.263Z,-0.2
2022-11-21T22:54:41.259Z,-0.2
2022-11-21T22:57:41.260Z,-0.2
2022-11-21T23:00:41.274Z,-0.2
2022-11-21T23:03:41.269Z,-0.2
2022-11-21T23:06:41.297Z,-0.2
2022-11-21T23:09:41.272Z,-0.2
2022-11-21T23:12:41.285Z,-0.2
2022-11-21T23:15:41.283Z,-0.2
2022-11-21T23:18:41.290Z,-0.2
2022-11-21T23:21:41.284Z,-0.2
2022-11-21T23:24:41.313Z,-0.2
2022-11-21T23:27:41.292Z,-0.2
2022-11-21T23:30:41.301Z,-0.2
2022-11-21T23:33:41.293Z,-0.2
2022-11-21T23:36:41.296Z,-0.2
2022-11-21T23:39:41.299Z,-0.2
2022-11-21T23:42:41.450Z,-0.2
2022-11-21T23:45:41.306Z,-0.2
2022-11-21T23:48:41.312Z,-0.2
2022-11-21T23:51:41.306Z,-0.2
2022-11-21T23:54:41.307Z,-0.2
2022-11-21T23:57:41.316Z,-0.2
